createdAt,value
2018-09-01T00:00:09.290Z,85.26
2018-09-01T00:02:38.300Z,84.84
2018-09-01T00:05:07.031Z,84.85
2018-09-01T00:07:35.701Z,84.94
2018-09-01T00:10:05.238Z,84.76
2018-09-01T00:12:33.993Z,84.69
2018-09-01T00:15:03.115Z,84.91
2018-09-01T00:17:32.199Z,85.22
2018-09-01T00:20:02.331Z,84.70
2018-09-01T00:22:31.119Z,85.41
2018-09-01T00:25:00.222Z,85.18
2018-09-01T00:27:28.798Z,84.88
2018-09-01T00:29:57.625Z,85.18
2018-09-01T00:32:26.390Z,85.34
2018-09-01T00:34:55.702Z,84.58
2018-09-01T00:37:29.905Z,85.02
2018-09-01T00:39:58.946Z,85.33
2018-09-01T00:42:27.587Z,84.83
2018-09-01T00:44:56.765Z,85.05
2018-09-01T00:47:25.406Z,85.07
2018-09-01T00:49:55.179Z,85.66
2018-09-01T00:52:23.918Z,85.34
2018-09-01T00:54:52.862Z,85.06
2018-09-01T00:57:21.454Z,84.86
2018-09-01T00:59:50.413Z,85.21
2018-09-01T01:02:19.257Z,85.00
2018-09-01T01:04:48.124Z,85.46
2018-09-01T01:09:43.799Z,85.27
2018-09-01T01:12:13.166Z,85.23
2018-09-01T01:14:41.790Z,85.49
2018-09-01T01:17:11.499Z,85.24
2018-09-01T01:19:41.100Z,84.96
2018-09-01T01:22:09.838Z,85.34
2018-09-01T01:24:38.752Z,85.04
2018-09-01T01:27:07.492Z,85.30
2018-09-01T01:29:36.222Z,85.31
2018-09-01T01:32:04.994Z,85.21
2018-09-01T01:34:33.756Z,85.09
2018-09-01T01:37:02.442Z,85.12
2018-09-01T01:39:31.365Z,85.89
2018-09-01T01:41:59.970Z,85.09
2018-09-01T01:44:29.303Z,85.49
2018-09-01T01:46:58.106Z,85.21
2018-09-01T01:49:27.658Z,85.83
2018-09-01T01:51:56.370Z,85.10
2018-09-01T01:54:25.457Z,85.36
2018-09-01T01:56:54.174Z,85.41
2018-09-01T01:59:22.929Z,85.75
2018-09-01T02:01:51.814Z,85.48
2018-09-01T02:04:20.469Z,85.85
2018-09-01T02:06:49.117Z,85.65
2018-09-01T02:09:17.667Z,85.67
2018-09-01T02:11:46.644Z,85.91
2018-09-01T02:14:15.487Z,86.27
2018-09-01T02:16:44.450Z,85.96
2018-09-01T02:19:13.252Z,85.44
2018-09-01T02:21:42.377Z,85.80
2018-09-01T02:24:11.159Z,85.68
2018-09-01T02:26:39.844Z,86.12
2018-09-01T02:29:08.594Z,86.21
2018-09-01T02:31:37.439Z,86.05
2018-09-01T02:34:06.230Z,85.84
2018-09-01T02:36:35.073Z,85.47
2018-09-01T02:39:06.051Z,85.92
2018-09-01T02:41:34.662Z,86.22
2018-09-01T02:44:04.514Z,86.03
2018-09-01T02:46:33.347Z,86.06
2018-09-01T02:49:02.596Z,86.00
2018-09-01T02:51:31.487Z,85.43
2018-09-01T02:54:01.446Z,85.64
2018-09-01T02:56:30.215Z,85.80
2018-09-01T02:58:59.590Z,85.50
2018-09-01T03:01:37.254Z,85.48
2018-09-01T03:04:07.231Z,85.61
2018-09-01T03:06:47.355Z,85.97
2018-09-01T03:09:16.228Z,86.01
2018-09-01T03:11:45.464Z,85.38
2018-09-01T03:14:14.066Z,85.21
2018-09-01T03:16:42.840Z,85.59
2018-09-01T03:19:11.502Z,85.65
2018-09-01T03:21:40.327Z,86.37
2018-09-01T03:24:08.978Z,85.77
2018-09-01T03:26:37.643Z,85.90
2018-09-01T03:29:07.132Z,86.03
2018-09-01T03:31:36.178Z,85.80
2018-09-01T03:34:05.759Z,85.73
2018-09-01T03:36:34.594Z,86.00
2018-09-01T03:39:05.454Z,85.61
2018-09-01T03:41:34.068Z,85.70
2018-09-01T03:44:03.676Z,86.07
2018-09-01T03:46:32.382Z,86.11
2018-09-01T03:49:02.354Z,85.96
2018-09-01T03:51:31.126Z,86.04
2018-09-01T03:54:00.312Z,85.85
2018-09-01T03:56:29.150Z,85.85
2018-09-01T03:58:58.011Z,85.76
2018-09-01T04:01:26.814Z,85.52
2018-09-01T04:03:55.568Z,85.75
2018-09-01T04:06:24.180Z,85.79
2018-09-01T04:08:52.914Z,85.66
2018-09-01T04:11:22.942Z,85.60
2018-09-01T04:13:51.566Z,85.46
2018-09-01T04:16:20.673Z,84.94
2018-09-01T04:18:49.266Z,85.67
2018-09-01T04:21:18.767Z,85.57
2018-09-01T04:23:47.555Z,85.84
2018-09-01T04:26:16.482Z,85.76
2018-09-01T04:28:45.197Z,85.55
2018-09-01T04:31:14.056Z,85.55
2018-09-01T04:33:42.734Z,86.16
2018-09-01T04:36:11.552Z,85.39
2018-09-01T04:38:40.453Z,85.59
2018-09-01T04:41:09.174Z,86.06
2018-09-01T04:43:38.229Z,86.15
2018-09-01T04:46:07.000Z,85.90
2018-09-01T04:48:35.730Z,85.61
2018-09-01T04:51:04.527Z,86.25
2018-09-01T04:53:34.180Z,85.74
2018-09-01T04:56:02.845Z,86.00
2018-09-01T04:58:32.698Z,85.75
2018-09-01T05:01:01.418Z,85.86
2018-09-01T05:03:30.310Z,85.69
2018-09-01T05:05:59.102Z,85.79
2018-09-01T05:08:27.709Z,85.51
2018-09-01T05:10:56.380Z,85.76
2018-09-01T05:13:25.178Z,86.09
2018-09-01T05:15:53.714Z,86.31
2018-09-01T05:18:22.362Z,86.12
2018-09-01T05:20:51.922Z,86.01
2018-09-01T05:23:20.653Z,85.82
2018-09-01T05:25:50.846Z,85.67
2018-09-01T05:28:19.666Z,85.45
2018-09-01T05:30:48.713Z,85.20
2018-09-01T05:33:17.362Z,84.91
2018-09-01T05:35:47.338Z,85.26
2018-09-01T05:38:16.353Z,85.05
2018-09-01T05:40:45.820Z,84.48
2018-09-01T05:43:14.726Z,84.90
2018-09-01T05:45:43.540Z,85.01
2018-09-01T05:48:12.194Z,84.79
2018-09-01T05:50:40.932Z,84.81
2018-09-01T05:53:09.702Z,84.41
2018-09-01T05:55:38.454Z,84.18
2018-09-01T05:58:08.043Z,83.95
2018-09-01T06:00:38.084Z,84.23
2018-09-01T06:03:07.852Z,84.11
2018-09-01T06:05:36.702Z,84.00
2018-09-01T06:08:05.776Z,83.52
2018-09-01T06:10:34.386Z,83.64
2018-09-01T06:13:04.179Z,82.82
2018-09-01T06:15:32.872Z,83.38
2018-09-01T06:18:02.887Z,83.31
2018-09-01T06:20:31.535Z,82.80
2018-09-01T06:23:00.213Z,83.29
2018-09-01T06:25:29.005Z,82.33
2018-09-01T06:28:01.853Z,82.19
2018-09-01T06:30:40.113Z,82.49
2018-09-01T06:33:08.921Z,82.62
2018-09-01T06:35:38.127Z,82.44
2018-09-01T06:38:06.993Z,82.18
2018-09-01T06:40:37.092Z,81.76
2018-09-01T06:43:05.859Z,81.90
2018-09-01T06:45:34.976Z,82.15
2018-09-01T06:48:03.502Z,82.18
2018-09-01T06:50:34.666Z,81.31
2018-09-01T06:53:03.962Z,81.58
2018-09-01T06:55:32.858Z,81.58
2018-09-01T06:58:01.608Z,81.54
2018-09-01T07:00:31.797Z,81.18
2018-09-01T07:03:01.070Z,81.19
2018-09-01T07:05:31.074Z,80.09
2018-09-01T07:07:59.953Z,80.08
2018-09-01T07:10:29.051Z,79.27
2018-09-01T07:12:57.783Z,79.41
2018-09-01T07:15:26.999Z,78.99
2018-09-01T07:17:55.683Z,77.73
2018-09-01T07:20:24.829Z,78.46
2018-09-01T07:22:54.210Z,78.33
2018-09-01T07:25:23.057Z,77.90
2018-09-01T07:27:51.745Z,78.10
2018-09-01T07:30:20.655Z,77.11
2018-09-01T07:32:49.654Z,77.06
2018-09-01T07:35:18.361Z,76.76
2018-09-01T07:37:47.835Z,76.81
2018-09-01T07:40:16.847Z,76.91
2018-09-01T07:42:46.307Z,75.88
2018-09-01T07:45:15.142Z,75.75
2018-09-01T07:47:44.190Z,75.46
2018-09-01T07:50:12.965Z,75.49
2018-09-01T07:52:42.278Z,75.32
2018-09-01T07:55:11.182Z,74.90
2018-09-01T07:57:40.777Z,75.35
2018-09-01T08:00:11.595Z,74.14
2018-09-01T08:05:28.773Z,74.81
2018-09-01T08:07:59.856Z,72.90
2018-09-01T08:10:29.760Z,73.63
2018-09-01T08:12:58.402Z,72.91
2018-09-01T08:15:32.278Z,73.30
2018-09-01T08:18:01.306Z,73.20
2018-09-01T08:20:32.617Z,72.54
2018-09-01T08:23:06.202Z,73.00
2018-09-01T08:25:35.058Z,72.98
2018-09-01T08:28:03.870Z,72.74
2018-09-01T08:30:32.584Z,71.58
2018-09-01T08:33:01.626Z,71.25
2018-09-01T08:35:30.336Z,71.75
2018-09-01T08:38:06.394Z,72.96
2018-09-01T08:40:36.898Z,71.23
2018-09-01T08:43:06.298Z,70.17
2018-09-01T08:45:36.015Z,70.61
2018-09-01T08:48:04.935Z,71.14
2018-09-01T08:50:34.979Z,71.28
2018-09-01T08:53:07.411Z,70.52
2018-09-01T08:55:36.043Z,70.54
2018-09-01T08:58:06.040Z,69.62
2018-09-01T09:00:34.758Z,69.33
2018-09-01T09:03:06.242Z,69.58
2018-09-01T09:05:35.423Z,68.86
2018-09-01T09:08:04.638Z,69.81
2018-09-01T09:10:33.578Z,68.41
2018-09-01T09:13:03.695Z,67.93
2018-09-01T09:15:32.463Z,69.37
2018-09-01T09:18:01.782Z,68.99
2018-09-01T09:20:30.585Z,68.57
2018-09-01T09:23:01.426Z,69.53
2018-09-01T09:25:30.110Z,67.72
2018-09-01T09:28:00.290Z,69.28
2018-09-01T09:30:29.076Z,67.86
2018-09-01T09:32:58.514Z,68.02
2018-09-01T09:35:27.962Z,67.60
2018-09-01T09:38:12.204Z,67.85
2018-09-01T09:40:41.006Z,67.47
2018-09-01T09:43:10.306Z,66.09
2018-09-01T09:45:39.210Z,66.20
2018-09-01T09:48:13.282Z,67.11
2018-09-01T09:50:43.712Z,66.51
2018-09-01T09:53:12.467Z,67.19
2018-09-01T09:55:43.293Z,65.04
2018-09-01T09:58:12.298Z,65.43
2018-09-01T10:00:47.022Z,64.94
2018-09-01T10:03:17.001Z,64.27
2018-09-01T10:05:47.478Z,65.38
2018-09-01T10:08:19.105Z,64.90
2018-09-01T10:10:47.869Z,64.78
2018-09-01T10:13:19.455Z,64.68
2018-09-01T10:15:48.882Z,65.52
2018-09-01T10:18:18.760Z,63.55
2018-09-01T10:20:48.645Z,63.60
2018-09-01T10:23:19.044Z,65.23
2018-09-01T10:25:48.565Z,63.51
2018-09-01T10:28:32.351Z,63.81
2018-09-01T10:31:02.264Z,65.10
2018-09-01T10:33:30.886Z,65.36
2018-09-01T10:36:01.612Z,64.64
2018-09-01T10:38:33.654Z,64.74
2018-09-01T10:41:02.706Z,61.44
2018-09-01T10:43:33.181Z,61.12
2018-09-01T10:46:02.060Z,60.95
2018-09-01T10:48:31.689Z,60.25
2018-09-01T10:51:00.300Z,61.60
2018-09-01T10:53:29.651Z,61.65
2018-09-01T10:55:58.270Z,63.02
2018-09-01T10:58:27.361Z,61.74
2018-09-01T11:00:57.992Z,61.63
2018-09-01T11:03:27.368Z,62.20
2018-09-01T11:05:56.522Z,61.49
2018-09-01T11:08:25.882Z,61.34
2018-09-01T11:10:56.383Z,61.80
2018-09-01T11:13:25.602Z,60.30
2018-09-01T11:15:54.448Z,61.35
2018-09-01T11:18:23.352Z,63.15
2018-09-01T11:20:52.486Z,60.78
2018-09-01T11:23:22.079Z,61.49
2018-09-01T11:25:50.967Z,61.65
2018-09-01T11:28:20.016Z,60.65
2018-09-01T11:30:49.143Z,61.56
2018-09-01T11:33:18.010Z,62.03
2018-09-01T11:35:51.883Z,61.46
2018-09-01T11:38:26.118Z,60.30
2018-09-01T11:40:56.019Z,59.80
2018-09-01T11:43:24.894Z,61.95
2018-09-01T11:45:54.228Z,61.29
2018-09-01T11:48:23.274Z,61.74
2018-09-01T11:50:52.220Z,60.00
2018-09-01T11:53:21.539Z,60.42
2018-09-01T11:55:51.045Z,60.80
2018-09-01T11:58:19.955Z,61.89
2018-09-01T12:00:49.162Z,61.30
2018-09-01T12:03:17.815Z,61.87
2018-09-01T12:05:46.523Z,61.79
2018-09-01T12:08:15.892Z,61.58
2018-09-01T12:10:44.934Z,61.56
2018-09-01T12:13:13.627Z,62.09
2018-09-01T12:15:42.474Z,60.83
2018-09-01T12:18:11.594Z,62.23
2018-09-01T12:20:40.331Z,61.60
2018-09-01T12:23:11.009Z,61.76
2018-09-01T12:25:39.712Z,60.24
2018-09-01T12:28:10.375Z,59.46
2018-09-01T12:30:39.559Z,60.12
2018-09-01T12:33:09.505Z,60.86
2018-09-01T12:35:42.946Z,60.14
2018-09-01T12:38:12.250Z,60.06
2018-09-01T12:40:41.286Z,60.23
2018-09-01T12:43:10.054Z,61.19
2018-09-01T12:45:39.014Z,60.18
2018-09-01T12:48:08.006Z,61.33
2018-09-01T12:50:36.935Z,59.59
2018-09-01T12:53:06.465Z,60.39
2018-09-01T12:55:35.540Z,57.34
2018-09-01T12:58:07.482Z,59.14
2018-09-01T13:00:44.261Z,59.82
2018-09-01T13:03:14.079Z,59.62
2018-09-01T13:05:42.706Z,59.55
2018-09-01T13:08:17.074Z,59.20
2018-09-01T13:10:46.090Z,59.66
2018-09-01T13:13:15.411Z,59.55
2018-09-01T13:15:48.167Z,60.01
2018-09-01T13:18:25.176Z,59.57
2018-09-01T13:21:09.194Z,61.28
2018-09-01T13:23:41.170Z,60.61
2018-09-01T13:26:11.509Z,60.25
2018-09-01T13:28:46.847Z,61.67
2018-09-01T13:31:19.140Z,61.99
2018-09-01T13:33:59.226Z,61.92
2018-09-01T13:36:35.745Z,61.72
2018-09-01T13:39:05.390Z,61.52
2018-09-01T13:41:34.488Z,62.58
2018-09-01T13:46:55.351Z,62.40
2018-09-01T13:49:36.686Z,61.74
2018-09-01T13:52:06.755Z,62.87
2018-09-01T13:54:36.206Z,63.22
2018-09-01T13:57:21.798Z,63.32
2018-09-01T13:59:50.470Z,63.04
2018-09-01T14:02:19.057Z,63.40
2018-09-01T14:04:48.114Z,63.53
2018-09-01T14:10:09.839Z,63.96
2018-09-01T14:12:40.538Z,63.91
2018-09-01T14:15:20.916Z,63.78
2018-09-01T14:17:49.572Z,63.97
2018-09-01T14:20:21.164Z,64.60
2018-09-01T14:22:51.635Z,65.30
2018-09-01T14:25:21.482Z,64.97
2018-09-01T14:28:00.653Z,65.74
2018-09-01T14:30:29.622Z,65.51
2018-09-01T14:32:58.374Z,65.66
2018-09-01T14:35:29.214Z,65.16
2018-09-01T14:38:06.067Z,65.63
2018-09-01T14:40:35.122Z,65.31
2018-09-01T14:43:08.017Z,65.64
2018-09-01T14:45:37.012Z,65.64
2018-09-01T14:48:06.248Z,65.65
2018-09-01T14:50:36.078Z,65.43
2018-09-01T14:53:06.858Z,65.76
2018-09-01T14:55:36.570Z,66.66
2018-09-01T14:58:05.870Z,66.28
2018-09-01T15:00:36.810Z,67.09
2018-09-01T15:03:11.147Z,67.45
2018-09-01T15:05:47.639Z,67.07
2018-09-01T15:08:28.417Z,66.76
2018-09-01T15:10:57.741Z,66.60
2018-09-01T15:13:29.729Z,66.43
2018-09-01T15:16:00.924Z,66.40
2018-09-01T15:18:45.672Z,66.86
2018-09-01T15:23:57.890Z,67.19
2018-09-01T15:26:27.294Z,67.17
2018-09-01T15:28:56.724Z,66.97
2018-09-01T15:31:26.326Z,66.75
2018-09-01T15:34:07.431Z,67.08
2018-09-01T15:36:36.224Z,66.83
2018-09-01T15:42:00.016Z,66.81
2018-09-01T15:44:30.535Z,66.99
2018-09-01T15:46:59.815Z,66.21
2018-09-01T15:49:30.182Z,67.13
2018-09-01T15:51:58.974Z,65.80
2018-09-01T15:54:29.276Z,65.70
2018-09-01T15:57:02.469Z,65.77
2018-09-01T15:59:32.294Z,65.82
2018-09-01T16:02:01.327Z,66.29
2018-09-01T16:04:34.468Z,66.72
2018-09-01T16:07:03.758Z,66.15
2018-09-01T16:09:37.014Z,66.99
2018-09-01T16:12:07.166Z,66.97
2018-09-01T16:14:36.003Z,67.21
2018-09-01T16:17:07.146Z,66.41
2018-09-01T16:19:37.109Z,66.51
2018-09-01T16:22:11.032Z,66.48
2018-09-01T16:24:45.117Z,65.48
2018-09-01T16:27:14.914Z,66.15
2018-09-01T16:29:44.342Z,66.69
2018-09-01T16:32:17.735Z,66.34
2018-09-01T16:34:47.717Z,66.43
2018-09-01T16:37:19.186Z,66.98
2018-09-01T16:39:48.690Z,66.57
2018-09-01T16:42:17.723Z,66.52
2018-09-01T16:44:47.475Z,66.13
2018-09-01T16:47:16.197Z,65.72
2018-09-01T16:49:45.641Z,66.60
2018-09-01T16:52:14.602Z,65.79
2018-09-01T16:54:43.807Z,66.35
2018-09-01T16:57:12.894Z,65.50
2018-09-01T16:59:42.371Z,65.62
2018-09-01T17:02:11.388Z,65.91
2018-09-01T17:04:46.274Z,66.34
2018-09-01T17:07:15.142Z,66.20
2018-09-01T17:09:47.906Z,66.27
2018-09-01T17:12:20.055Z,66.71
2018-09-01T17:14:50.085Z,66.18
2018-09-01T17:17:28.620Z,66.32
2018-09-01T17:19:57.695Z,67.10
2018-09-01T17:22:29.146Z,67.64
2018-09-01T17:24:57.924Z,67.89
2018-09-01T17:27:28.402Z,68.20
2018-09-01T17:30:00.890Z,68.07
2018-09-01T17:32:30.986Z,68.35
2018-09-01T17:35:07.437Z,68.79
2018-09-01T17:37:44.579Z,69.37
2018-09-01T17:40:20.173Z,69.36
2018-09-01T17:42:51.638Z,69.67
2018-09-01T17:45:21.262Z,70.17
2018-09-01T17:48:00.421Z,70.44
2018-09-01T17:50:29.136Z,71.04
2018-09-01T17:53:02.177Z,72.00
2018-09-01T17:55:30.995Z,72.48
2018-09-01T17:58:08.593Z,72.16
2018-09-01T18:00:37.524Z,73.03
2018-09-01T18:03:06.628Z,73.81
2018-09-01T18:05:41.350Z,73.75
2018-09-01T18:08:10.655Z,74.49
2018-09-01T18:10:40.198Z,74.54
2018-09-01T18:13:14.383Z,74.89
2018-09-01T18:15:43.627Z,75.73
2018-09-01T18:18:24.577Z,76.04
2018-09-01T18:20:53.941Z,75.60
2018-09-01T18:23:34.032Z,76.15
2018-09-01T18:26:02.947Z,75.93
2018-09-01T18:28:31.937Z,76.42
2018-09-01T18:31:01.223Z,76.56
2018-09-01T18:33:38.750Z,76.48
2018-09-01T18:36:07.709Z,77.28
2018-09-01T18:38:37.867Z,77.01
2018-09-01T18:41:08.326Z,78.26
2018-09-01T18:43:44.491Z,77.58
2018-09-01T18:46:14.864Z,77.76
2018-09-01T18:48:51.887Z,78.59
2018-09-01T18:51:22.726Z,78.36
2018-09-01T18:54:08.947Z,78.45
2018-09-01T18:56:39.150Z,78.72
2018-09-01T18:59:08.194Z,79.32
2018-09-01T19:01:38.809Z,78.56
2018-09-01T19:04:07.800Z,78.71
2018-09-01T19:06:50.770Z,78.72
2018-09-01T19:09:20.502Z,78.90
2018-09-01T19:11:54.466Z,78.70
2018-09-01T19:14:34.708Z,78.82
2018-09-01T19:17:20.974Z,78.86
2018-09-01T19:19:50.246Z,78.77
2018-09-01T19:22:36.416Z,79.09
2018-09-01T19:25:07.185Z,79.10
2018-09-01T19:27:37.990Z,79.21
2018-09-01T19:32:45.990Z,79.50
2018-09-01T19:35:14.957Z,78.84
2018-09-01T19:37:46.170Z,78.97
2018-09-01T19:40:18.108Z,79.62
2018-09-01T19:42:48.391Z,79.58
2018-09-01T19:45:17.819Z,80.06
2018-09-01T19:47:47.573Z,79.71
2018-09-01T19:50:16.578Z,80.01
2018-09-01T19:52:45.402Z,79.01
2018-09-01T19:55:14.356Z,79.84
2018-09-01T19:57:46.146Z,80.41
2018-09-01T20:00:16.155Z,80.04
2018-09-01T20:02:45.477Z,79.72
2018-09-01T20:05:15.701Z,80.16
2018-09-01T20:07:44.465Z,79.97
2018-09-01T20:10:14.584Z,80.19
2018-09-01T20:12:43.902Z,80.06
2018-09-01T20:15:20.147Z,80.65
2018-09-01T20:17:49.771Z,81.03
2018-09-01T20:20:18.586Z,81.85
2018-09-01T20:22:51.187Z,81.92
2018-09-01T20:25:20.763Z,81.42
2018-09-01T20:27:53.831Z,81.01
2018-09-01T20:30:29.921Z,81.28
2018-09-01T20:33:00.661Z,80.96
2018-09-01T20:35:37.846Z,81.26
2018-09-01T20:38:07.248Z,81.36
2018-09-01T20:43:28.633Z,81.35
2018-09-01T20:45:59.158Z,82.34
2018-09-01T20:48:31.327Z,81.85
2018-09-01T20:51:12.282Z,82.08
2018-09-01T20:53:56.207Z,81.86
2018-09-01T20:56:32.598Z,81.79
2018-09-01T20:59:01.542Z,81.83
2018-09-01T21:01:40.866Z,82.07
2018-09-01T21:04:11.283Z,82.14
2018-09-01T21:06:40.069Z,82.58
2018-09-01T21:09:10.527Z,82.28
2018-09-01T21:11:41.107Z,82.94
2018-09-01T21:14:19.679Z,83.40
2018-09-01T21:16:48.419Z,83.04
2018-09-01T21:19:18.850Z,83.03
2018-09-01T21:21:48.346Z,82.69
2018-09-01T21:24:28.300Z,82.58
2018-09-01T21:26:59.174Z,83.35
2018-09-01T21:29:32.074Z,82.71
2018-09-01T21:32:03.731Z,82.73
2018-09-01T21:34:32.366Z,82.64
2018-09-01T21:37:05.072Z,82.56
2018-09-01T21:42:29.186Z,84.31
2018-09-01T21:45:09.297Z,83.51
2018-09-01T21:50:19.100Z,82.94
2018-09-01T21:52:49.498Z,84.15
2018-09-01T21:55:19.984Z,83.51
2018-09-01T21:57:48.970Z,83.86
2018-09-01T22:00:18.640Z,84.37
2018-09-01T22:02:59.939Z,83.97
2018-09-01T22:05:29.206Z,84.57
2018-09-01T22:07:58.431Z,84.49
2018-09-01T22:10:27.202Z,84.35
2018-09-01T22:12:57.170Z,84.46
2018-09-01T22:15:28.239Z,83.93
2018-09-01T22:17:57.497Z,84.35
2018-09-01T22:20:36.282Z,84.69
2018-09-01T22:23:21.066Z,84.50
2018-09-01T22:25:59.983Z,84.29
2018-09-01T22:28:31.031Z,85.22
2018-09-01T22:31:05.790Z,85.13
2018-09-01T22:33:48.130Z,85.61
2018-09-01T22:36:28.498Z,85.19
2018-09-01T22:39:04.491Z,84.69
2018-09-01T22:41:51.862Z,84.55
2018-09-01T22:44:26.733Z,85.61
2018-09-01T22:47:10.297Z,85.64
2018-09-01T22:49:39.234Z,85.94
2018-09-01T22:52:26.330Z,85.25
2018-09-01T22:54:57.454Z,85.63
2018-09-01T22:57:27.439Z,85.26
2018-09-01T23:00:11.112Z,85.36
2018-09-01T23:02:42.353Z,84.76
2018-09-01T23:05:11.342Z,84.98
2018-09-01T23:07:43.399Z,84.85
2018-09-01T23:10:12.345Z,85.00
2018-09-01T23:12:43.970Z,84.83
2018-09-01T23:15:14.385Z,85.36
2018-09-01T23:17:43.202Z,85.22
2018-09-01T23:20:13.461Z,85.50
2018-09-01T23:22:52.717Z,85.40
2018-09-01T23:25:23.926Z,86.08
2018-09-01T23:27:54.046Z,85.94
2018-09-01T23:30:29.182Z,86.64
2018-09-01T23:32:59.927Z,86.39
2018-09-01T23:35:29.262Z,87.44
2018-09-01T23:38:03.678Z,86.82
2018-09-01T23:40:52.634Z,86.30
2018-09-01T23:43:21.465Z,86.46
2018-09-01T23:45:53.974Z,87.03
2018-09-01T23:48:28.466Z,87.61
2018-09-01T23:51:03.415Z,86.99
2018-09-01T23:53:33.982Z,87.19
2018-09-01T23:56:14.975Z,87.03
2018-09-01T23:58:43.975Z,86.88
